Time;durP1;ratioP1;P1;durP2;ratioP2;P2;SDS_P1;SDS_P2;PMS_P1;PMS_P2;Temp;Humidity;BMP_temperature;BMP_pressure;BME280_temperature;BME280_humidity;BME280_pressure;Samples;Min_cycle;Max_cycle;Signal;HPM_P1;HPM_P2
2022/06/24 00:00:39;;;;;;;0.90;0.90;;;21.60;99.90;22.20;100677.00;;;;5017894;28;20217;-73
2022/06/24 00:03:16;;;;;;;0.70;0.70;;;21.50;99.90;22.10;100711.00;;;;5034498;28;20185;-73
2022/06/24 00:05:46;;;;;;;1.92;1.83;;;21.40;99.90;21.60;100712.00;;;;5018411;28;20178;-74
2022/06/24 00:08:19;;;;;;;1.02;1.02;;;21.20;99.90;21.40;100697.00;;;;5034325;28;20275;-72
2022/06/24 00:10:57;;;;;;;1.40;1.33;;;21.00;99.90;21.20;100708.00;;;;5034287;28;20185;-70
2022/06/24 00:13:39;;;;;;;1.30;1.30;;;20.70;99.90;21.00;100723.00;;;;5033866;28;20663;-70
2022/06/24 00:16:06;;;;;;;2.53;2.42;;;20.60;99.90;21.20;100730.00;;;;5034022;28;20166;-70
2022/06/24 00:18:40;;;;;;;3.42;3.33;;;20.60;99.90;21.10;100708.00;;;;5034262;28;20174;-70
2022/06/24 00:21:14;;;;;;;6.80;6.40;;;20.50;99.90;20.90;100732.00;;;;5034754;28;20231;-70
2022/06/24 00:23:47;;;;;;;3.15;2.95;;;20.50;99.90;20.70;100735.00;;;;5017592;28;20188;-69
2022/06/24 00:26:48;;;;;;;2.25;2.25;;;20.40;99.90;20.90;100701.00;;;;5017555;28;20624;-70
2022/06/24 00:29:20;;;;;;;6.10;5.57;;;20.30;99.90;21.00;100721.00;;;;5034101;28;20508;-71
2022/06/24 00:32:41;;;;;;;2.53;2.43;;;20.30;99.90;20.50;100727.00;;;;5017163;28;20647;-72
2022/06/24 00:35:18;;;;;;;3.90;3.67;;;20.20;99.90;20.50;100714.00;;;;5005849;28;20187;-70
2022/06/24 00:37:50;;;;;;;1.92;1.85;;;20.10;99.90;20.50;100715.00;;;;5017359;28;20228;-71
2022/06/24 00:40:24;;;;;;;1.97;1.87;;;20.10;99.90;20.60;100688.00;;;;5033740;28;20193;-71
2022/06/24 00:43:02;;;;;;;1.40;1.40;;;20.10;99.90;20.60;100697.00;;;;5016809;28;20199;-70
2022/06/24 00:46:06;;;;;;;1.60;1.60;;;20.10;99.90;20.80;100716.00;;;;5033459;28;20221;-70
2022/06/24 00:49:13;;;;;;;1.57;1.57;;;20.10;99.90;21.00;100709.00;;;;4988140;28;20196;-71
2022/06/24 00:51:41;;;;;;;2.23;2.13;;;20.20;99.90;20.90;100703.00;;;;5034352;28;20219;-72
2022/06/24 00:54:17;;;;;;;1.53;1.53;;;20.20;99.90;20.90;100678.00;;;;5033013;28;20644;-71
2022/06/24 00:56:48;;;;;;;1.70;1.70;;;20.20;99.90;20.90;100693.00;;;;5017130;28;20187;-70
2022/06/24 00:59:27;;;;;;;1.60;1.60;;;20.20;99.90;20.60;100678.00;;;;5033340;28;20265;-71
2022/06/24 01:01:56;;;;;;;1.50;1.50;;;20.10;99.90;20.70;100660.00;;;;5033971;28;20655;-70
2022/06/24 01:04:32;;;;;;;1.60;1.60;;;20.00;99.90;20.60;100689.00;;;;5016728;28;20184;-70
2022/06/24 01:07:09;;;;;;;1.50;1.50;;;20.00;99.90;21.00;100681.00;;;;5017108;28;20205;-71
2022/06/24 01:09:45;;;;;;;1.57;1.57;;;20.20;99.90;20.90;100668.00;;;;5033730;28;20220;-70
2022/06/24 01:12:35;;;;;;;1.47;1.47;;;20.20;99.90;20.80;100663.00;;;;5032820;28;20216;-71
2022/06/24 01:15:21;;;;;;;1.70;1.70;;;20.10;99.90;20.80;100650.00;;;;5016831;28;20637;-72
2022/06/24 01:17:53;;;;;;;1.87;1.87;;;20.10;99.90;20.90;100639.00;;;;5032678;28;20195;-71
2022/06/24 01:20:24;;;;;;;2.80;2.70;;;20.10;99.90;20.20;100617.00;;;;5033591;28;20158;-72
2022/06/24 01:23:01;;;;;;;1.27;1.27;;;20.10;99.90;20.40;100611.00;;;;5016896;28;20694;-71
2022/06/24 01:25:34;;;;;;;2.17;2.17;;;20.00;99.90;21.00;100590.00;;;;5032934;28;20182;-71
2022/06/24 01:28:09;;;;;;;1.93;1.83;;;20.30;99.90;21.10;100583.00;;;;5032938;28;20192;-70
2022/06/24 01:30:35;;;;;;;1.67;1.67;;;20.40;99.90;20.60;100583.00;;;;5032755;28;20171;-70
2022/06/24 01:33:06;;;;;;;2.33;2.13;;;20.40;99.90;20.90;100587.00;;;;5015861;28;20575;-71
2022/06/24 01:35:45;;;;;;;2.80;2.70;;;20.30;99.90;20.70;100576.00;;;;5049165;28;20196;-70
2022/06/24 01:38:14;;;;;;;1.63;1.60;;;20.20;99.90;20.90;100586.00;;;;5033106;28;20215;-70
2022/06/24 01:40:57;;;;;;;2.57;2.47;;;20.30;99.90;20.90;100579.00;;;;5032442;28;20632;-70
2022/06/24 01:43:25;;;;;;;2.43;2.33;;;20.30;99.90;21.10;100545.00;;;;5015827;28;20218;-70
2022/06/24 01:46:01;;;;;;;2.23;2.13;;;20.30;99.90;20.70;100563.00;;;;5032754;28;20279;-70
2022/06/24 01:48:32;;;;;;;3.47;2.90;;;20.30;99.90;20.70;100565.00;;;;5032303;28;20271;-70
2022/06/24 01:51:09;;;;;;;1.63;1.63;;;20.10;99.90;20.70;100561.00;;;;5032464;28;20162;-70
2022/06/24 01:53:42;;;;;;;1.70;1.70;;;20.20;99.90;20.50;100556.00;;;;5032356;28;20648;-70
2022/06/24 01:56:14;;;;;;;1.87;1.87;;;20.20;99.90;20.60;100555.00;;;;5032428;28;20170;-70
2022/06/24 01:59:00;;;;;;;2.60;2.43;;;20.10;99.90;20.50;100573.00;;;;5032645;28;20183;-70
2022/06/24 02:01:28;;;;;;;6.63;6.00;;;20.10;99.90;19.90;100600.00;;;;5032208;28;20223;-71
2022/06/24 02:04:02;;;;;;;8.77;7.97;;;19.80;99.90;19.90;100603.00;;;;5015726;28;20628;-71
2022/06/24 02:06:35;;;;;;;1.00;1.00;;;19.60;99.90;19.80;100608.00;;;;5028956;28;20176;-71
2022/06/24 02:09:09;;;;;;;0.90;0.90;;;19.60;99.90;20.50;100596.00;;;;5032223;28;20268;-71
2022/06/24 02:14:33;;;;;;;1.20;1.20;;;19.90;99.90;20.50;100590.00;;;;5032309;28;20180;-70
2022/06/24 02:17:06;;;;;;;1.30;1.30;;;19.90;99.90;21.00;100604.00;;;;5032527;28;20169;-70
2022/06/24 02:19:39;;;;;;;1.80;1.80;;;20.10;99.90;21.30;100567.00;;;;5032293;28;20223;-71
2022/06/24 02:22:13;;;;;;;5.07;3.20;;;20.40;99.90;21.00;100589.00;;;;5031998;28;20186;-71
2022/06/24 02:24:46;;;;;;;2.23;2.13;;;20.40;99.90;21.10;100578.00;;;;5031642;28;20735;-70
2022/06/24 02:27:19;;;;;;;1.30;1.30;;;20.30;99.90;21.10;100576.00;;;;5032340;28;20585;-70
2022/06/24 02:29:50;;;;;;;25.33;4.90;;;20.40;99.90;21.20;100566.00;;;;5015539;28;20184;-70
2022/06/24 02:32:23;;;;;;;1.70;1.70;;;20.50;99.90;21.20;100527.00;;;;5031850;28;20207;-71
2022/06/24 02:34:59;;;;;;;2.97;2.80;;;20.50;99.90;20.40;100532.00;;;;5031910;28;20181;-71
2022/06/24 02:37:28;;;;;;;1.43;1.43;;;20.20;99.90;20.20;100546.00;;;;5031984;28;20177;-71
2022/06/24 02:40:45;;;;;;;3.40;3.30;;;20.00;99.90;20.20;100544.00;;;;5031878;28;20184;-71
2022/06/24 02:43:02;;;;;;;1.53;1.53;;;19.90;99.90;20.10;100520.00;;;;5031681;28;20193;-71
2022/06/24 02:45:35;;;;;;;2.73;2.60;;;19.80;99.90;19.80;100545.00;;;;5031950;28;20173;-71
2022/06/24 02:48:08;;;;;;;1.13;1.13;;;19.60;99.90;20.10;100548.00;;;;5032166;28;20183;-71
2022/06/24 02:50:58;;;;;;;1.30;1.30;;;19.60;99.90;20.60;100557.00;;;;5031811;28;20177;-71
2022/06/24 02:53:33;;;;;;;3.10;2.90;;;19.90;99.90;21.00;100559.00;;;;5031982;28;20212;-71
2022/06/24 02:56:24;;;;;;;1.20;1.20;;;20.10;99.90;20.60;100579.00;;;;5031895;28;20180;-71
2022/06/24 02:58:52;;;;;;;1.50;1.50;;;20.10;99.90;20.70;100575.00;;;;5032187;28;20171;-71
2022/06/24 03:02:03;;;;;;;3.33;3.23;;;20.10;99.90;20.10;100599.00;;;;5033339;28;20176;-71
2022/06/24 03:04:38;;;;;;;4.33;3.57;;;19.80;99.90;20.30;100593.00;;;;5009875;28;20212;-71
2022/06/24 03:07:12;;;;;;;1.10;1.10;;;19.80;99.90;19.70;100592.00;;;;5015633;28;20234;-71
2022/06/24 03:10:10;;;;;;;3.07;2.97;;;19.60;99.90;20.10;100588.00;;;;5015285;28;20176;-71
2022/06/24 03:12:50;;;;;;;1.10;1.10;;;19.70;99.90;20.20;100589.00;;;;5016357;28;20198;-71
2022/06/24 03:15:30;;;;;;;1.50;1.50;;;19.70;99.90;20.20;100603.00;;;;5016356;28;20193;-71
2022/06/24 03:18:02;;;;;;;2.45;2.35;;;19.70;99.90;20.70;100603.00;;;;5032386;28;20169;-70
2022/06/24 03:20:32;;;;;;;1.40;1.40;;;19.90;99.90;20.30;100604.00;;;;5035507;28;20259;-71
2022/06/24 03:23:08;;;;;;;1.70;1.60;;;19.80;99.90;20.70;100598.00;;;;5019110;28;20273;-70
2022/06/24 03:25:34;;;;;;;1.37;1.37;;;20.00;99.90;20.80;100589.00;;;;5019043;28;20596;-70
2022/06/24 03:28:04;;;;;;;1.40;1.40;;;20.10;99.90;20.70;100586.00;;;;5037215;28;20174;-70
2022/06/24 03:30:33;;;;;;;2.87;2.67;;;20.10;99.90;19.80;100566.00;;;;5035232;28;20331;-70
2022/06/24 03:33:01;;;;;;;1.10;1.10;;;19.80;99.90;19.70;100579.00;;;;5035201;28;20217;-71
2022/06/24 03:35:36;;;;;;;1.20;1.20;;;19.60;99.90;20.30;100570.00;;;;5036040;28;20241;-71
2022/06/24 03:38:09;;;;;;;1.27;1.27;;;19.70;99.90;20.10;100569.00;;;;5036445;28;20162;-71
2022/06/24 03:40:45;;;;;;;1.67;1.67;;;19.70;99.90;20.60;100549.00;;;;5018386;28;20180;-70
2022/06/24 03:43:22;;;;;;;2.33;2.13;;;19.80;99.90;20.60;100571.00;;;;5034720;28;20551;-71
2022/06/24 03:45:50;;;;;;;2.47;2.37;;;19.90;99.90;20.80;100537.00;;;;5034918;28;20173;-71
2022/06/24 03:48:26;;;;;;;3.93;3.57;;;20.00;99.90;20.40;100554.00;;;;5018416;28;20645;-71
2022/06/24 03:50:52;;;;;;;1.40;1.40;;;20.00;99.90;20.20;100559.00;;;;5018337;28;20277;-71
2022/06/24 03:53:23;;;;;;;1.73;1.73;;;19.80;99.90;20.20;100558.00;;;;5035887;28;20283;-70
2022/06/24 03:55:59;;;;;;;1.40;1.40;;;19.80;99.90;19.90;100549.00;;;;5036106;28;20198;-70
2022/06/24 03:58:32;;;;;;;6.33;5.90;;;19.70;99.90;19.90;100536.00;;;;5018249;28;20182;-70
2022/06/24 04:01:31;;;;;;;9.40;6.60;;;19.60;99.90;20.30;100540.00;;;;5034731;28;20638;-71
2022/06/24 04:04:07;;;;;;;1.23;1.23;;;19.60;99.90;20.80;100544.00;;;;5030954;28;20205;-71
2022/06/24 04:06:33;;;;;;;2.45;2.35;;;20.00;99.90;20.20;100548.00;;;;5034469;28;20166;-70
2022/06/24 04:09:16;;;;;;;7.93;6.47;;;19.90;99.90;20.00;100541.00;;;;5034924;28;20577;-70
2022/06/24 04:11:48;;;;;;;1.73;1.73;;;19.70;99.90;19.80;100514.00;;;;5034073;28;20214;-70
2022/06/24 04:17:28;;;;;;;1.20;1.20;;;19.50;99.90;19.40;100541.00;;;;5034286;28;20185;-70
2022/06/24 04:19:59;;;;;;;4.57;3.20;;;19.30;99.90;19.60;100517.00;;;;5034361;28;20501;-71
2022/06/24 04:22:27;;;;;;;10.87;9.97;;;19.30;99.90;20.20;100547.00;;;;5034003;28;20254;-70
2022/06/24 04:24:53;;;;;;;2.33;2.23;;;19.60;99.90;19.80;100516.00;;;;5034061;28;20208;-72
2022/06/24 04:27:37;;;;;;;4.43;4.03;;;19.50;99.90;19.50;100554.00;;;;5034334;28;20167;-72
2022/06/24 04:30:24;;;;;;;1.07;1.07;;;19.40;99.90;19.90;100535.00;;;;5034008;28;20255;-70
2022/06/24 04:33:28;;;;;;;1.57;1.47;;;19.40;99.90;20.40;100546.00;;;;5017132;28;20224;-70
2022/06/24 04:35:54;;;;;;;1.70;1.70;;;19.60;99.90;20.20;100553.00;;;;5034328;28;20537;-70
2022/06/24 04:38:23;;;;;;;1.30;1.30;;;19.70;99.90;20.90;100558.00;;;;5017550;28;20703;-70
2022/06/24 04:40:49;;;;;;;1.50;1.50;;;19.90;99.90;20.60;100544.00;;;;5034178;28;20174;-70
2022/06/24 04:43:23;;;;;;;1.83;1.83;;;19.90;99.90;20.40;100548.00;;;;5033998;28;20213;-70
2022/06/24 04:45:49;;;;;;;1.50;1.50;;;19.90;99.90;21.00;100546.00;;;;5033952;28;20181;-70
2022/06/24 04:48:26;;;;;;;1.70;1.70;;;20.20;99.90;20.90;100544.00;;;;5033574;28;20185;-70
2022/06/24 04:51:14;;;;;;;1.70;1.70;;;20.30;99.90;20.60;100544.00;;;;5033455;28;20177;-71
2022/06/24 04:53:41;;;;;;;1.87;1.87;;;20.20;99.90;20.70;100548.00;;;;5016963;28;20657;-69
2022/06/24 04:56:07;;;;;;;1.40;1.40;;;20.10;99.90;20.10;100526.00;;;;5033754;28;20168;-69
2022/06/24 04:58:50;;;;;;;2.90;2.80;;;19.90;99.90;20.30;100526.00;;;;5033462;28;20182;-69
2022/06/24 05:01:19;;;;;;;1.98;1.88;;;19.80;99.90;19.90;100546.00;;;;5017257;28;20189;-69
2022/06/24 05:03:45;;;;;;;1.20;1.20;;;19.70;99.90;20.30;100519.00;;;;5017016;28;20186;-69
2022/06/24 05:06:18;;;;;;;2.43;2.33;;;19.60;99.90;20.10;100553.00;;;;5050045;28;20189;-69
2022/06/24 05:08:51;;;;;;;2.28;2.20;;;19.70;99.90;20.10;100548.00;;;;5017029;28;20277;-69
2022/06/24 05:11:17;;;;;;;3.08;2.90;;;19.60;99.90;19.80;100548.00;;;;5033330;28;20251;-69
2022/06/24 05:13:47;;;;;;;1.20;1.20;;;19.50;99.90;20.20;100526.00;;;;5033165;28;20196;-69
2022/06/24 05:16:16;;;;;;;1.10;1.10;;;19.70;99.90;19.80;100545.00;;;;5033579;28;20193;-69
2022/06/24 05:18:50;;;;;;;3.58;3.38;;;19.60;99.90;19.80;100553.00;;;;5033078;28;20189;-69
2022/06/24 05:21:27;;;;;;;3.40;3.20;;;19.50;99.90;19.60;100557.00;;;;5034196;28;20644;-70
2022/06/24 05:23:57;;;;;;;2.47;2.27;;;19.50;99.90;19.60;100565.00;;;;5016246;28;20239;-69
2022/06/24 05:26:42;;;;;;;1.60;1.50;;;19.40;99.90;19.60;100555.00;;;;5016441;28;20206;-69
2022/06/24 05:29:25;;;;;;;1.15;1.15;;;19.30;99.90;19.20;100560.00;;;;5032904;28;20182;-71
2022/06/24 05:31:59;;;;;;;0.90;0.90;;;19.20;99.90;19.10;100567.00;;;;5032527;28;20684;-69
2022/06/24 05:34:46;;;;;;;0.70;0.70;;;19.10;99.90;19.10;100554.00;;;;5032332;28;20291;-70
2022/06/24 05:37:32;;;;;;;0.80;0.80;;;19.00;99.90;19.20;100539.00;;;;5016816;28;20216;-70
2022/06/24 05:40:18;;;;;;;1.10;1.10;;;19.00;99.90;19.50;100526.00;;;;5016701;28;20180;-70
2022/06/24 05:42:57;;;;;;;1.10;1.10;;;19.20;99.90;19.30;100559.00;;;;5032406;28;20169;-70
2022/06/24 05:49:37;;;;;;;4.03;3.67;;;19.50;99.90;20.20;100555.00;;;;5033319;28;20193;-70
2022/06/24 05:55:36;;;;;;;1.08;1.08;;;19.60;99.90;19.30;100555.00;;;;5032640;28;20231;-70
2022/06/24 05:58:19;;;;;;;0.80;0.80;;;19.30;99.90;19.70;100534.00;;;;5032460;28;20180;-70
2022/06/24 06:01:11;;;;;;;2.00;1.77;;;19.40;99.90;19.70;100547.00;;;;5032210;28;20208;-70
2022/06/24 06:03:59;;;;;;;1.15;1.15;;;19.40;99.90;20.00;100544.00;;;;5032112;28;20182;-69
2022/06/24 06:06:29;;;;;;;1.27;1.27;;;19.50;99.90;20.40;100529.00;;;;5015817;28;20265;-70
2022/06/24 06:09:02;;;;;;;1.15;1.15;;;19.80;99.90;20.20;100516.00;;;;5015550;28;20192;-69
2022/06/24 06:11:46;;;;;;;1.20;1.20;;;19.80;99.90;20.80;100525.00;;;;5016041;28;20208;-70
2022/06/24 06:14:14;;;;;;;0.95;0.93;;;20.10;99.90;19.70;100534.00;;;;5015933;28;20847;-70
2022/06/24 06:16:43;;;;;;;1.10;1.10;;;19.70;99.90;20.60;100528.00;;;;5033134;28;20888;-70
2022/06/24 06:19:27;;;;;;;1.03;1.03;;;20.00;99.90;19.60;100524.00;;;;5032187;28;20586;-70
2022/06/24 06:22:16;;;;;;;0.90;0.90;;;19.60;99.90;20.30;100533.00;;;;5015583;28;20251;-70
2022/06/24 06:25:01;;;;;;;0.90;0.90;;;19.70;99.90;20.40;100534.00;;;;5015356;28;20259;-69
2022/06/24 06:27:51;;;;;;;1.10;1.10;;;19.90;99.90;21.00;100559.00;;;;5048796;28;20190;-70
2022/06/24 06:30:37;;;;;;;1.30;1.30;;;20.20;99.90;20.80;100549.00;;;;5032444;28;20221;-70
2022/06/24 06:33:15;;;;;;;1.20;1.20;;;20.30;99.90;21.40;100542.00;;;;5031952;28;20217;-70
2022/06/24 06:35:53;;;;;;;2.25;1.77;;;20.60;99.90;21.30;100546.00;;;;5033049;28;20167;-70
2022/06/24 06:38:37;;;;;;;1.10;1.10;;;20.70;99.90;20.90;100537.00;;;;5015593;28;20232;-69
2022/06/24 06:41:03;;;;;;;0.75;0.75;;;20.60;99.90;20.10;100550.00;;;;5031882;28;20182;-69
2022/06/24 06:43:54;;;;;;;0.60;0.60;;;20.10;99.90;20.00;100555.00;;;;5031975;28;20178;-69
2022/06/24 06:46:41;;;;;;;0.70;0.70;;;19.90;99.90;20.20;100545.00;;;;5015195;28;20644;-68
2022/06/24 06:49:33;;;;;;;0.80;0.80;;;19.90;99.90;20.70;100550.00;;;;5016889;28;20674;-69
2022/06/24 06:52:25;;;;;;;0.80;0.80;;;20.10;99.90;20.80;100545.00;;;;5031611;28;20216;-69
2022/06/24 06:55:09;;;;;;;0.70;0.70;;;20.30;99.90;20.70;100554.00;;;;5036449;28;20251;-69
2022/06/24 06:57:35;;;;;;;0.82;0.82;;;20.20;99.90;20.20;100551.00;;;;5036340;28;20175;-69
2022/06/24 07:00:03;;;;;;;0.73;0.73;;;20.10;99.90;20.50;100541.00;;;;5019113;28;20276;-68
2022/06/24 07:02:57;;;;;;;0.80;0.80;;;20.20;99.90;21.40;100523.00;;;;5035700;28;20658;-68
2022/06/24 07:05:25;;;;;;;0.93;0.93;;;20.50;99.90;21.70;100542.00;;;;5037013;28;20163;-68
2022/06/24 07:08:26;;;;;;;1.00;1.00;;;20.90;99.90;21.70;100540.00;;;;5035579;28;20155;-67
2022/06/24 07:11:15;;;;;;;0.73;0.73;;;21.10;99.90;21.60;100509.00;;;;5019025;28;20217;-68
2022/06/24 07:13:51;;;;;;;0.60;0.60;;;21.30;99.90;21.40;100537.00;;;;5021095;28;20199;-68
2022/06/24 07:16:28;;;;;;;0.70;0.70;;;21.30;99.90;21.40;100545.00;;;;5035172;28;20249;-67
2022/06/24 07:19:15;;;;;;;0.60;0.60;;;21.10;99.90;21.50;100546.00;;;;5051617;28;20206;-68
2022/06/24 07:21:42;;;;;;;0.60;0.60;;;21.10;99.90;21.20;100548.00;;;;4999305;28;20690;-68
2022/06/24 07:24:32;;;;;;;6.05;1.95;;;21.00;99.90;20.50;100565.00;;;;4999204;28;20199;-68
2022/06/24 07:27:02;;;;;;;0.75;0.75;;;20.60;99.90;20.40;100567.00;;;;5030012;28;20198;-68
2022/06/24 07:29:31;;;;;;;1.05;1.05;;;20.20;99.90;20.90;100574.00;;;;5018707;28;20183;-69
2022/06/24 07:31:59;;;;;;;1.15;1.15;;;20.30;99.90;20.90;100578.00;;;;5015052;28;20222;-69
2022/06/24 07:34:35;;;;;;;0.80;0.80;;;20.40;99.90;20.00;100575.00;;;;5005292;28;20660;-68
2022/06/24 07:37:31;;;;;;;0.70;0.70;;;20.00;99.90;19.80;100574.00;;;;5032444;28;20650;-68
2022/06/24 07:40:16;;;;;;;0.70;0.70;;;19.80;99.90;20.50;100575.00;;;;5030939;28;20281;-68
2022/06/24 07:42:51;;;;;;;0.90;0.90;;;19.90;99.90;20.40;100548.00;;;;5048633;28;20186;-68
2022/06/24 07:45:38;;;;;;;1.40;1.40;;;20.00;99.90;20.90;100573.00;;;;5045841;28;20194;-69
2022/06/24 07:48:24;;;;;;;0.90;0.90;;;20.20;99.90;20.40;100572.00;;;;5034616;28;20200;-69
2022/06/24 07:51:07;;;;;;;0.80;0.80;;;20.10;99.90;20.60;100571.00;;;;5033936;28;20197;-69
2022/06/24 07:53:58;;;;;;;1.00;1.00;;;20.10;99.90;21.20;100543.00;;;;5035052;28;20178;-69
2022/06/24 07:56:57;;;;;;;0.90;0.90;;;20.30;99.90;20.50;100561.00;;;;5018672;28;20194;-71
2022/06/24 07:59:49;;;;;;;0.80;0.80;;;20.30;99.90;20.70;100561.00;;;;5034888;28;20194;-61
2022/06/24 08:02:28;;;;;;;1.13;1.13;;;20.20;99.90;20.70;100564.00;;;;5019239;28;20182;-70
2022/06/24 08:04:54;;;;;;;2.25;1.60;;;20.30;99.90;20.60;100559.00;;;;5035568;28;20183;-70
2022/06/24 08:07:32;;;;;;;1.98;1.88;;;20.20;99.90;20.40;100560.00;;;;5034729;28;20732;-70
2022/06/24 08:10:15;;;;;;;0.70;0.70;;;20.10;99.90;20.40;100568.00;;;;5034856;28;20643;-71
2022/06/24 08:13:02;;;;;;;0.88;0.88;;;20.00;99.90;20.90;100563.00;;;;5033798;28;20249;-70
2022/06/24 08:15:28;;;;;;;1.00;1.00;;;20.20;99.90;21.20;100559.00;;;;5035232;28;20186;-66
2022/06/24 08:18:04;;;;;;;0.98;0.98;;;20.40;99.90;21.00;100548.00;;;;5027408;28;20202;-66
2022/06/24 08:21:11;;;;;;;1.15;1.15;;;20.50;99.90;20.90;100558.00;;;;5034565;28;20571;-66
2022/06/24 08:24:04;;;;;;;0.90;0.90;;;20.40;99.90;20.60;100547.00;;;;5050145;28;20247;-66
2022/06/24 08:26:33;;;;;;;1.52;1.52;;;20.40;99.90;20.50;100553.00;;;;5035336;28;20205;-66
2022/06/24 08:29:09;;;;;;;1.30;1.30;;;20.30;99.90;20.50;100536.00;;;;5034652;28;20182;-67
2022/06/24 08:31:38;;;;;;;1.40;1.40;;;20.10;99.90;21.10;100558.00;;;;5050382;28;20261;-67
2022/06/24 08:34:17;;;;;;;1.33;1.33;;;20.30;99.90;20.40;100552.00;;;;5034088;28;20543;-67
2022/06/24 08:36:51;;;;;;;1.77;1.77;;;20.00;99.90;20.30;100531.00;;;;5034322;28;20175;-67
2022/06/24 08:39:29;;;;;;;1.88;1.88;;;19.90;99.90;20.20;100550.00;;;;5017290;28;20652;-66
2022/06/24 08:42:14;;;;;;;1.20;1.20;;;19.80;99.90;19.80;100557.00;;;;5046184;28;20224;-66
2022/06/24 08:44:42;;;;;;;1.90;1.80;;;19.70;99.90;19.40;100551.00;;;;5011411;28;20207;-66
2022/06/24 08:47:18;;;;;;;1.45;1.45;;;19.30;99.90;19.60;100551.00;;;;5016924;28;20222;-66
2022/06/24 08:49:44;;;;;;;1.60;1.60;;;19.30;99.90;19.40;100555.00;;;;5032306;28;20632;-66
2022/06/24 08:52:13;;;;;;;1.10;1.10;;;19.30;99.90;19.10;100557.00;;;;5027754;28;20267;-66
2022/06/24 08:55:16;;;;;;;1.40;1.40;;;19.10;99.90;19.10;100544.00;;;;5033495;28;20198;-67
2022/06/24 08:57:50;;;;;;;1.20;1.20;;;19.10;99.90;19.10;100544.00;;;;5033613;28;20223;-67
2022/06/24 09:00:19;;;;;;;1.30;1.30;;;18.90;99.90;19.50;100545.00;;;;5033591;28;20210;-67
2022/06/24 09:02:45;;;;;;;1.30;1.30;;;19.10;99.90;19.60;100539.00;;;;5016246;28;20177;-66
2022/06/24 09:05:24;;;;;;;1.40;1.40;;;19.20;99.90;19.40;100529.00;;;;5033782;28;20167;-70
2022/06/24 09:08:17;;;;;;;1.20;1.20;;;19.20;99.90;19.60;100525.00;;;;5016828;28;20191;-70
2022/06/24 09:11:11;;;;;;;1.30;1.30;;;19.10;99.90;19.90;100516.00;;;;5033627;28;20287;-70
2022/06/24 09:13:55;;;;;;;1.70;1.70;;;19.40;99.90;20.20;100501.00;;;;5020487;28;20299;-70
2022/06/24 09:16:25;;;;;;;1.50;1.50;;;19.60;99.90;20.00;100503.00;;;;5025227;28;20255;-69
2022/06/24 09:18:55;;;;;;;1.40;1.40;;;19.50;99.90;20.10;100497.00;;;;5032965;28;20184;-69
2022/06/24 09:22:02;;;;;;;1.70;1.70;;;19.50;99.90;20.70;100488.00;;;;5032119;28;20188;-69
2022/06/24 09:24:51;;;;;;;1.40;1.40;;;19.80;99.90;20.10;100495.00;;;;5026184;28;20314;-69
2022/06/24 09:27:17;;;;;;;1.20;1.20;;;19.70;99.90;19.70;100493.00;;;;5053313;28;20252;-69
2022/06/24 09:29:48;;;;;;;1.17;1.17;;;19.50;99.90;19.40;100487.00;;;;5032897;28;20273;-70
2022/06/24 09:32:31;;;;;;;1.00;1.00;;;19.30;99.90;19.20;100497.00;;;;5021696;28;20295;-69
2022/06/24 09:35:10;;;;;;;1.00;1.00;;;19.10;99.90;19.50;100492.00;;;;5052587;28;20187;-69
2022/06/24 09:37:43;;;;;;;1.10;1.10;;;19.10;99.90;19.50;100500.00;;;;5021328;28;20185;-69
2022/06/24 09:40:40;;;;;;;1.58;1.58;;;19.20;99.90;19.60;100512.00;;;;5015822;28;20640;-69
2022/06/24 09:43:30;;;;;;;1.00;1.00;;;19.40;99.90;19.50;100507.00;;;;5032322;28;20632;-70
2022/06/24 09:46:03;;;;;;;1.20;1.20;;;19.30;99.90;19.70;100517.00;;;;5032342;28;20250;-70
2022/06/24 09:48:38;;;;;;;1.27;1.27;;;19.40;99.90;19.50;100494.00;;;;5032098;28;20188;-70
2022/06/24 09:51:06;;;;;;;1.20;1.20;;;19.30;99.90;19.60;100523.00;;;;5032915;28;20255;-70
2022/06/24 09:54:16;;;;;;;1.20;1.17;;;19.30;99.90;20.00;100520.00;;;;5015837;28;20181;-70
2022/06/24 09:56:49;;;;;;;1.63;1.63;;;19.60;99.90;20.70;100517.00;;;;5032625;28;20557;-70
2022/06/24 10:03:04;;;;;;;0.80;0.80;;;20.40;99.90;21.70;100513.00;;;;5033489;28;20199;-70
2022/06/24 10:05:50;;;;;;;1.00;1.00;;;20.90;99.90;20.80;100482.00;;;;5032401;28;20630;-70
2022/06/24 10:09:15;;;;;;;0.65;0.65;;;21.00;99.90;21.40;100507.00;;;;5032044;28;20196;-70
2022/06/24 10:11:47;;;;;;;0.50;0.50;;;21.10;99.90;23.30;100515.00;;;;5018071;28;20689;-70
2022/06/24 10:14:26;;;;;;;0.47;0.43;;;22.30;99.90;21.80;100504.00;;;;5031863;28;20170;-70
2022/06/24 10:17:00;;;;;;;0.40;0.40;;;22.10;99.90;21.90;100496.00;;;;5033718;28;20193;-70
2022/06/24 10:19:39;;;;;;;0.50;0.50;;;21.90;99.90;21.80;100497.00;;;;5032374;28;20166;-70
2022/06/24 10:33:53;;;;;;;1.60;1.50;;;21.60;99.90;22.60;100494.00;;;;5059154;27;2855193;-69
2022/06/24 10:36:31;;;;;;;1.95;1.85;;;22.30;99.90;21.70;100511.00;;;;5038158;27;20728;-64
2022/06/24 10:39:17;;;;;;;0.50;0.50;;;21.80;99.90;21.60;100477.00;;;;5131177;28;20192;-68
2022/06/24 10:41:49;;;;;;;1.02;0.93;;;21.70;99.90;22.80;100508.00;;;;5124879;28;20238;-69
2022/06/24 10:45:06;;;;;;;3.70;3.40;;;22.60;99.90;24.20;100497.00;;;;5121003;28;20214;-69
2022/06/24 10:47:35;;;;;;;2.22;2.10;;;23.90;99.90;25.40;100489.00;;;;5101401;28;20250;-69
2022/06/24 10:50:02;;;;;;;2.58;2.28;;;24.80;99.90;26.00;100478.00;;;;5111185;28;20173;-69
2022/06/24 10:52:55;;;;;;;2.25;2.05;;;25.50;99.90;24.70;100471.00;;;;5110843;28;20195;-69
2022/06/24 10:55:24;;;;;;;0.52;0.52;;;25.10;99.90;25.10;100473.00;;;;5110961;28;20183;-68
2022/06/24 10:58:32;;;;;;;0.80;0.80;;;25.20;99.90;25.10;100473.00;;;;5110774;28;20184;-69
2022/06/24 11:01:47;;;;;;;0.30;0.30;;;25.00;99.90;24.70;100473.00;;;;5107957;28;20226;-68
2022/06/24 11:04:36;;;;;;;0.30;0.30;;;24.60;99.90;25.00;100471.00;;;;5086481;28;20196;-68
2022/06/24 11:07:18;;;;;;;0.63;0.60;;;25.00;99.90;25.00;100448.00;;;;5108406;28;20193;-69
2022/06/24 11:10:26;;;;;;;0.20;0.20;;;24.90;99.90;26.50;100466.00;;;;5110580;28;20180;-69
2022/06/24 11:13:15;;;;;;;1.58;1.30;;;25.80;99.90;25.40;100466.00;;;;5110368;28;20212;-69
2022/06/24 11:15:58;;;;;;;1.63;1.25;;;25.90;99.90;25.10;100457.00;;;;5113951;28;20699;-69
2022/06/24 11:18:49;;;;;;;1.35;0.77;;;25.40;99.90;26.40;100468.00;;;;5129942;28;20213;-69
2022/06/24 11:21:42;;;;;;;0.20;0.20;;;26.20;99.90;26.20;100465.00;;;;5129289;28;20642;-69
2022/06/24 11:24:20;;;;;;;0.63;0.63;;;26.00;99.90;26.10;100476.00;;;;5129482;28;20188;-69
2022/06/24 11:27:42;;;;;;;0.20;0.20;;;26.20;99.90;29.00;100532.00;;;;5112405;28;20171;-69
2022/06/24 11:30:11;;;;;;;0.40;0.35;;;27.60;99.90;27.10;100518.00;;;;5014217;28;20182;-69
2022/06/24 11:32:58;;;;;;;3.53;3.08;;;27.40;99.90;24.00;100466.00;;;;5030297;28;20724;-69
2022/06/24 11:35:39;;;;;;;5.75;5.10;;;25.00;99.90;22.70;100445.00;;;;5103353;28;20214;-69
2022/06/24 11:38:07;;;;;;;1.33;1.27;;;23.70;99.90;24.70;100465.00;;;;5129267;28;20648;-69
2022/06/24 11:40:36;;;;;;;7.25;6.38;;;24.40;99.90;24.00;100459.00;;;;5114629;28;20276;-69
2022/06/24 11:43:13;;;;;;;6.30;4.05;;;24.30;99.90;24.60;100476.00;;;;5086211;28;20189;-69
2022/06/24 11:45:49;;;;;;;0.80;0.80;;;24.90;99.90;26.30;100485.00;;;;5094973;28;20184;-68
2022/06/24 11:48:33;;;;;;;2.28;1.90;;;25.90;99.90;27.80;100530.00;;;;5077935;28;20245;-69
2022/06/24 11:51:03;;;;;;;8.20;2.28;;;27.40;99.90;28.60;100554.00;;;;5094306;28;20520;-68
2022/06/24 11:53:32;;;;;;;6.78;4.00;;;28.40;99.90;28.80;100575.00;;;;5077713;28;20600;-69
2022/06/24 11:55:58;;;;;;;10.38;5.05;;;28.80;99.90;29.20;100576.00;;;;5077685;28;20189;-68
2022/06/24 11:58:38;;;;;;;9.45;6.00;;;28.40;99.90;25.20;100526.00;;;;5078093;28;20684;-68
2022/06/24 12:01:10;;;;;;;4.90;4.45;;;26.60;99.90;25.70;100456.00;;;;5077824;28;20188;-68
2022/06/24 12:03:36;;;;;;;16.50;10.02;;;25.50;99.90;27.20;100533.00;;;;5094905;28;20204;-68
2022/06/24 12:06:03;;;;;;;26.42;12.73;;;26.30;99.90;26.10;100520.00;;;;5094321;28;20180;-68